createdAt,value
2018-09-27T00:01:51.699Z,15.10
2018-09-27T00:04:23.025Z,15.00
2018-09-27T00:06:54.066Z,15.10
2018-09-27T00:09:25.683Z,15.00
2018-09-27T00:11:56.815Z,14.90
2018-09-27T00:14:28.011Z,14.90
2018-09-27T00:16:59.355Z,14.80
2018-09-27T00:19:30.377Z,14.80
2018-09-27T00:22:02.067Z,14.70
2018-09-27T00:24:33.355Z,14.70
2018-09-27T00:27:04.834Z,14.60
2018-09-27T00:29:36.109Z,14.70
2018-09-27T00:32:07.352Z,14.60
2018-09-27T00:34:38.801Z,14.60
2018-09-27T00:37:10.125Z,14.60
2018-09-27T00:39:41.281Z,14.60
2018-09-27T00:42:12.288Z,14.60
2018-09-27T00:44:43.656Z,14.60
2018-09-27T00:47:14.647Z,14.60
2018-09-27T00:49:45.729Z,14.70
2018-09-27T00:52:16.914Z,14.60
2018-09-27T00:54:48.483Z,14.60
2018-09-27T00:57:19.616Z,14.60
2018-09-27T00:59:50.780Z,14.70
2018-09-27T01:02:22.005Z,14.60
2018-09-27T01:04:53.171Z,14.60
2018-09-27T01:07:24.363Z,14.60
2018-09-27T01:09:55.360Z,14.60
2018-09-27T01:12:26.576Z,14.70
2018-09-27T01:14:57.792Z,14.50
2018-09-27T01:17:28.971Z,14.70
2018-09-27T01:20:00.471Z,14.60
2018-09-27T01:22:31.817Z,14.60
2018-09-27T01:25:03.131Z,14.50
2018-09-27T01:27:34.364Z,14.40
2018-09-27T01:30:06.123Z,14.40
2018-09-27T01:32:37.497Z,14.30
2018-09-27T01:35:08.721Z,14.30
2018-09-27T01:37:39.879Z,14.20
2018-09-27T01:40:11.238Z,14.20
2018-09-27T01:42:42.427Z,14.00
2018-09-27T01:45:13.662Z,14.00
2018-09-27T01:47:45.019Z,14.00
2018-09-27T01:50:16.268Z,14.10
2018-09-27T01:52:47.883Z,14.10
2018-09-27T01:55:19.255Z,14.10
2018-09-27T01:57:50.555Z,14.20
2018-09-27T02:00:21.777Z,14.10
2018-09-27T02:02:52.761Z,14.00
2018-09-27T02:05:23.999Z,14.00
2018-09-27T02:07:55.423Z,14.00
2018-09-27T02:10:26.558Z,14.10
2018-09-27T02:12:57.732Z,13.90
2018-09-27T02:15:28.770Z,13.80
2018-09-27T02:18:00.123Z,13.90
2018-09-27T02:20:31.139Z,13.80
2018-09-27T02:23:02.510Z,13.70
2018-09-27T02:25:33.671Z,13.80
2018-09-27T02:28:05.372Z,13.90
2018-09-27T02:30:36.813Z,13.90
2018-09-27T02:33:07.868Z,13.80
2018-09-27T02:35:39.061Z,13.80
2018-09-27T02:38:10.088Z,13.80
2018-09-27T02:40:41.440Z,13.70
2018-09-27T02:43:12.612Z,13.70
2018-09-27T02:45:44.102Z,13.60
2018-09-27T02:48:15.180Z,13.60
2018-09-27T02:50:46.834Z,13.60
2018-09-27T02:53:18.200Z,13.70
2018-09-27T02:55:49.398Z,13.50
2018-09-27T02:58:20.745Z,13.40
2018-09-27T03:00:51.786Z,13.50
2018-09-27T03:03:23.144Z,13.50
2018-09-27T03:05:54.314Z,13.50
2018-09-27T03:08:25.526Z,13.50
2018-09-27T03:10:56.500Z,13.40
2018-09-27T03:13:27.505Z,13.30
2018-09-27T03:15:58.698Z,13.30
2018-09-27T03:18:29.892Z,13.40
2018-09-27T03:21:01.525Z,13.40
2018-09-27T03:23:32.660Z,13.30
2018-09-27T03:26:04.554Z,13.30
2018-09-27T03:28:35.635Z,13.30
2018-09-27T03:31:07.117Z,13.20
2018-09-27T03:33:38.227Z,13.20
2018-09-27T03:36:09.440Z,13.20
2018-09-27T03:38:40.693Z,13.20
2018-09-27T03:41:11.817Z,13.20
2018-09-27T03:43:43.201Z,13.20
2018-09-27T03:46:14.376Z,13.10
2018-09-27T03:48:45.456Z,13.20
2018-09-27T03:51:17.164Z,13.10
2018-09-27T03:53:48.331Z,13.00
2018-09-27T03:56:19.353Z,13.10
2018-09-27T03:58:50.817Z,13.20
2018-09-27T04:01:22.145Z,13.20
2018-09-27T04:03:53.302Z,13.20
2018-09-27T04:06:24.809Z,13.10
2018-09-27T04:08:55.887Z,13.10
2018-09-27T04:11:27.367Z,13.20
2018-09-27T04:13:58.676Z,13.10
2018-09-27T04:16:29.645Z,13.10
2018-09-27T04:19:00.824Z,13.00
2018-09-27T04:21:32.455Z,13.00
2018-09-27T04:24:03.520Z,12.90
2018-09-27T04:26:34.820Z,13.20
2018-09-27T04:29:06.270Z,13.00
2018-09-27T04:31:37.897Z,13.00
2018-09-27T04:34:09.238Z,13.00
2018-09-27T04:36:40.588Z,13.00
2018-09-27T04:39:13.423Z,13.20
2018-09-27T04:41:44.619Z,13.10
2018-09-27T04:44:15.952Z,13.00
2018-09-27T04:46:47.359Z,13.10
2018-09-27T04:49:18.732Z,13.20
2018-09-27T04:51:49.969Z,13.20
2018-09-27T04:54:21.159Z,13.10
2018-09-27T04:56:52.503Z,13.30
2018-09-27T04:59:23.832Z,13.30
2018-09-27T05:01:55.855Z,13.30
2018-09-27T05:04:27.307Z,13.20
2018-09-27T05:06:58.597Z,13.30
2018-09-27T05:09:29.843Z,13.30
2018-09-27T05:12:00.782Z,13.30
2018-09-27T05:14:32.790Z,13.20
2018-09-27T05:17:04.295Z,13.10
2018-09-27T05:19:35.709Z,13.10
2018-09-27T05:22:06.994Z,13.00
2018-09-27T05:24:38.139Z,13.00
2018-09-27T05:27:10.249Z,13.10
2018-09-27T05:29:41.513Z,13.20
2018-09-27T05:32:12.491Z,13.00
2018-09-27T05:34:43.768Z,13.10
2018-09-27T05:37:15.091Z,13.00
2018-09-27T05:39:46.072Z,13.10
2018-09-27T05:42:17.452Z,13.00
2018-09-27T05:44:48.666Z,13.00
2018-09-27T05:47:20.651Z,13.00
2018-09-27T05:49:51.907Z,13.00
2018-09-27T05:52:23.028Z,13.10
2018-09-27T05:54:54.021Z,13.10
2018-09-27T05:57:25.507Z,13.10
2018-09-27T05:59:56.820Z,13.00
2018-09-27T06:02:27.983Z,13.00
2018-09-27T06:04:59.057Z,13.10
2018-09-27T06:07:30.507Z,13.10
2018-09-27T06:10:01.736Z,13.10
2018-09-27T06:12:32.952Z,13.20
2018-09-27T06:15:04.353Z,13.20
2018-09-27T06:17:35.747Z,13.20
2018-09-27T06:20:07.119Z,13.40
2018-09-27T06:22:38.612Z,13.40
2018-09-27T06:25:09.865Z,13.40
2018-09-27T06:27:41.725Z,13.50
2018-09-27T06:30:13.097Z,13.50
2018-09-27T06:32:44.423Z,13.50
2018-09-27T06:35:15.631Z,13.50
2018-09-27T06:37:47.160Z,13.60
2018-09-27T06:40:18.406Z,13.80
2018-09-27T06:42:49.614Z,13.90
2018-09-27T06:45:20.808Z,13.80
2018-09-27T06:47:51.807Z,14.00
2018-09-27T06:50:23.651Z,14.10
2018-09-27T06:52:55.008Z,14.30
2018-09-27T06:55:26.518Z,14.40
2018-09-27T06:57:58.050Z,14.60
2018-09-27T07:00:29.552Z,14.60
2018-09-27T07:06:12.032Z,14.90
2018-09-27T07:08:43.303Z,15.10
2018-09-27T07:11:14.423Z,15.00
2018-09-27T07:13:45.671Z,15.10
2018-09-27T07:16:17.025Z,15.10
2018-09-27T07:18:48.108Z,15.30
2018-09-27T07:21:19.214Z,15.50
2018-09-27T07:23:50.411Z,15.60
2018-09-27T07:26:22.304Z,15.80
2018-09-27T07:28:53.584Z,15.70
2018-09-27T07:31:24.828Z,15.70
2018-09-27T07:33:55.951Z,15.90
2018-09-27T07:36:27.263Z,16.00
2018-09-27T07:38:58.601Z,16.30
2018-09-27T07:41:29.960Z,16.30
2018-09-27T07:44:01.618Z,16.40
2018-09-27T07:46:32.907Z,16.60
2018-09-27T07:49:24.863Z,16.70
2018-09-27T07:51:56.269Z,16.80
2018-09-27T07:54:27.708Z,17.00
2018-09-27T07:56:58.949Z,17.20
2018-09-27T07:59:30.188Z,17.20
2018-09-27T08:02:01.352Z,17.40
2018-09-27T08:04:32.789Z,17.50
2018-09-27T08:07:04.203Z,17.70
2018-09-27T08:09:35.467Z,17.70
2018-09-27T08:12:06.636Z,17.90
2018-09-27T08:14:38.083Z,18.10
2018-09-27T08:17:09.739Z,18.40
2018-09-27T08:19:40.817Z,18.50
2018-09-27T08:22:12.112Z,18.80
2018-09-27T08:24:43.382Z,18.90
2018-09-27T08:27:14.372Z,19.20
2018-09-27T08:29:45.851Z,19.50
2018-09-27T08:32:17.325Z,19.70
2018-09-27T08:34:48.553Z,19.80
2018-09-27T08:37:19.948Z,19.90
2018-09-27T08:39:51.114Z,20.20
2018-09-27T08:42:22.309Z,20.30
2018-09-27T08:44:53.641Z,20.50
2018-09-27T08:47:25.039Z,20.60
2018-09-27T08:49:56.331Z,20.70
2018-09-27T08:52:27.474Z,20.90
2018-09-27T08:54:58.676Z,21.00
2018-09-27T08:57:29.876Z,21.10
2018-09-27T09:00:01.387Z,21.10
2018-09-27T09:02:32.682Z,21.40
2018-09-27T09:05:03.862Z,21.40
2018-09-27T09:07:35.257Z,21.70
2018-09-27T09:10:06.867Z,22.00
2018-09-27T09:12:38.224Z,22.50
2018-09-27T09:15:09.439Z,23.50
2018-09-27T09:17:40.915Z,24.10
2018-09-27T09:20:12.311Z,24.10
2018-09-27T09:22:43.541Z,24.70
2018-09-27T09:25:14.762Z,24.70
2018-09-27T09:27:45.970Z,25.10
2018-09-27T09:30:17.523Z,25.00
2018-09-27T09:32:48.704Z,24.90
2018-09-27T09:35:19.875Z,25.10
2018-09-27T09:37:51.100Z,25.90
2018-09-27T09:40:22.958Z,26.20
2018-09-27T09:42:54.264Z,26.00
2018-09-27T09:45:25.500Z,26.40
2018-09-27T09:47:56.899Z,26.70
2018-09-27T09:50:28.246Z,26.80
2018-09-27T09:52:59.226Z,26.90
2018-09-27T09:55:30.436Z,27.40
2018-09-27T09:58:01.600Z,27.20
2018-09-27T10:00:32.957Z,27.50
2018-09-27T10:03:04.501Z,27.20
2018-09-27T10:05:35.625Z,27.50
2018-09-27T10:08:06.883Z,27.70
2018-09-27T10:10:37.978Z,28.10
2018-09-27T10:13:08.966Z,28.40
2018-09-27T10:15:40.151Z,28.50
2018-09-27T10:18:11.316Z,28.70
2018-09-27T10:20:42.351Z,28.60
2018-09-27T10:23:13.533Z,28.10
2018-09-27T10:25:44.780Z,28.50
2018-09-27T10:28:16.101Z,28.30
2018-09-27T10:30:47.287Z,28.00
2018-09-27T10:33:18.300Z,28.40
2018-09-27T10:35:50.082Z,29.00
2018-09-27T10:38:21.371Z,29.40
2018-09-27T10:40:52.824Z,29.70
2018-09-27T10:43:24.325Z,29.80
2018-09-27T10:45:55.470Z,29.70
2018-09-27T10:48:27.192Z,30.10
2018-09-27T10:50:58.423Z,29.80
2018-09-27T10:53:29.827Z,29.80
2018-09-27T10:56:01.072Z,29.60
2018-09-27T10:58:32.687Z,30.10
2018-09-27T11:01:03.971Z,29.40
2018-09-27T11:03:34.992Z,29.70
2018-09-27T11:06:06.170Z,30.20
2018-09-27T11:08:37.162Z,30.50
2018-09-27T11:11:08.502Z,30.90
2018-09-27T11:13:39.760Z,30.90
2018-09-27T11:16:11.215Z,31.00
2018-09-27T11:18:42.659Z,31.20
2018-09-27T11:21:14.218Z,30.90
2018-09-27T11:23:45.459Z,30.90
2018-09-27T11:26:16.660Z,31.10
2018-09-27T11:28:52.842Z,31.10
2018-09-27T11:31:29.067Z,31.20
2018-09-27T11:34:00.113Z,31.30
2018-09-27T11:36:32.145Z,31.70
2018-09-27T11:39:03.740Z,31.90
2018-09-27T11:41:35.295Z,32.10
2018-09-27T11:44:06.685Z,31.70
2018-09-27T11:46:37.823Z,32.00
2018-09-27T11:49:09.818Z,32.10
2018-09-27T11:51:40.991Z,31.80
2018-09-27T11:54:12.340Z,32.00
2018-09-27T11:56:43.558Z,32.20
2018-09-27T11:59:14.728Z,31.90
2018-09-27T12:01:45.833Z,32.10
2018-09-27T12:04:16.917Z,32.00
2018-09-27T12:06:48.016Z,31.70
2018-09-27T12:09:19.816Z,31.70
2018-09-27T12:11:50.930Z,31.60
2018-09-27T12:14:22.945Z,32.00
2018-09-27T12:16:54.584Z,31.50
2018-09-27T12:19:26.838Z,31.20
2018-09-27T12:21:58.612Z,31.00
2018-09-27T12:24:29.819Z,31.40
2018-09-27T12:27:00.800Z,31.90
2018-09-27T12:29:32.795Z,32.20
2018-09-27T12:32:04.004Z,32.40
2018-09-27T12:34:35.373Z,32.40
2018-09-27T12:37:06.415Z,32.20
2018-09-27T12:39:37.688Z,32.10
2018-09-27T12:42:09.050Z,32.40
2018-09-27T12:44:40.232Z,31.30
2018-09-27T12:47:12.186Z,31.60
2018-09-27T12:49:43.613Z,32.10
2018-09-27T12:52:15.235Z,32.60
2018-09-27T12:54:46.262Z,32.60
2018-09-27T12:57:17.539Z,32.60
2018-09-27T12:59:48.947Z,32.50
2018-09-27T13:02:20.128Z,32.60
2018-09-27T13:04:51.443Z,32.40
2018-09-27T13:07:22.636Z,32.70
2018-09-27T13:09:53.997Z,32.40
2018-09-27T13:12:25.072Z,32.00
2018-09-27T13:14:56.436Z,32.10
2018-09-27T13:17:27.818Z,31.40
2018-09-27T13:19:59.263Z,31.80
2018-09-27T13:22:30.419Z,31.70
2018-09-27T13:25:02.097Z,31.50
2018-09-27T13:27:33.336Z,32.10
2018-09-27T13:30:04.731Z,31.80
2018-09-27T13:32:35.991Z,31.80
2018-09-27T13:35:07.235Z,31.70
2018-09-27T13:37:38.283Z,30.80
2018-09-27T13:40:09.799Z,31.80
2018-09-27T13:42:41.175Z,32.30
2018-09-27T13:45:12.342Z,32.40
2018-09-27T13:47:43.655Z,32.30
2018-09-27T13:50:14.903Z,31.60
2018-09-27T13:52:46.256Z,31.70
2018-09-27T13:55:17.295Z,31.90
2018-09-27T13:57:48.908Z,31.30
2018-09-27T14:00:20.225Z,30.30
2018-09-27T14:02:51.422Z,30.30
2018-09-27T14:05:22.597Z,30.10
2018-09-27T14:07:53.967Z,30.10
2018-09-27T14:10:25.499Z,29.80
2018-09-27T14:12:56.575Z,30.20
2018-09-27T14:15:27.949Z,30.60
2018-09-27T14:17:59.392Z,30.00
2018-09-27T14:20:30.547Z,30.40
2018-09-27T14:23:01.720Z,30.50
2018-09-27T14:25:32.966Z,30.10
2018-09-27T14:28:04.127Z,30.50
2018-09-27T14:30:36.380Z,30.60
2018-09-27T14:33:07.614Z,30.20
2018-09-27T14:35:38.705Z,30.50
2018-09-27T14:38:09.832Z,30.30
2018-09-27T14:40:41.699Z,30.20
2018-09-27T14:43:13.019Z,30.10
2018-09-27T14:45:44.193Z,29.80
2018-09-27T14:48:15.423Z,29.50
2018-09-27T14:50:46.560Z,29.80
2018-09-27T14:53:17.567Z,29.50
2018-09-27T14:55:48.831Z,29.70
2018-09-27T14:58:20.198Z,29.20
2018-09-27T15:00:51.353Z,29.40
2018-09-27T15:03:22.396Z,29.20
2018-09-27T15:05:54.104Z,28.70
2018-09-27T15:08:25.715Z,28.70
2018-09-27T15:10:56.994Z,29.20
2018-09-27T15:13:28.295Z,29.50
2018-09-27T15:15:59.483Z,29.50
2018-09-27T15:18:30.681Z,29.20
2018-09-27T15:21:01.896Z,29.20
2018-09-27T15:23:33.522Z,29.00
2018-09-27T15:26:04.692Z,28.90
2018-09-27T15:28:36.044Z,29.00
2018-09-27T15:31:07.293Z,28.80
2018-09-27T15:33:38.472Z,28.90
2018-09-27T15:36:09.680Z,28.50
2018-09-27T15:38:41.043Z,28.40
2018-09-27T15:41:12.895Z,28.20
2018-09-27T15:43:44.195Z,28.00
2018-09-27T15:46:15.216Z,28.10
2018-09-27T15:48:46.564Z,28.30
2018-09-27T15:51:17.780Z,28.40
2018-09-27T15:53:48.951Z,28.40
2018-09-27T15:56:20.125Z,28.40
2018-09-27T15:58:51.151Z,28.00
2018-09-27T16:01:22.312Z,27.90
2018-09-27T16:03:53.654Z,27.90
2018-09-27T16:06:24.892Z,28.00
2018-09-27T16:08:56.095Z,28.00
2018-09-27T16:11:28.321Z,27.90
2018-09-27T16:13:59.646Z,27.80
2018-09-27T16:16:31.161Z,27.80
2018-09-27T16:19:02.456Z,27.70
2018-09-27T16:21:33.861Z,27.80
2018-09-27T16:24:05.061Z,27.60
2018-09-27T16:26:36.396Z,27.70
2018-09-27T16:29:07.938Z,27.60
2018-09-27T16:31:39.456Z,27.50
2018-09-27T16:34:10.593Z,27.50
2018-09-27T16:36:41.751Z,27.50
2018-09-27T16:39:12.949Z,27.50
2018-09-27T16:41:44.260Z,27.50
2018-09-27T16:44:15.523Z,27.40
2018-09-27T16:46:57.060Z,27.40
2018-09-27T16:49:28.623Z,27.30
2018-09-27T16:51:59.912Z,27.30
2018-09-27T16:54:30.953Z,27.30
2018-09-27T16:57:02.312Z,27.20
2018-09-27T16:59:33.530Z,27.20
2018-09-27T17:02:04.901Z,27.10
2018-09-27T17:04:36.375Z,27.10
2018-09-27T17:07:08.020Z,27.00
2018-09-27T17:09:39.191Z,27.00
2018-09-27T17:12:10.343Z,26.90
2018-09-27T17:14:41.459Z,26.90
2018-09-27T17:17:12.850Z,26.70
2018-09-27T17:19:43.998Z,26.60
2018-09-27T17:22:15.036Z,26.60
2018-09-27T17:24:46.238Z,26.50
2018-09-27T17:27:17.470Z,26.30
2018-09-27T17:29:48.655Z,26.10
2018-09-27T17:32:20.956Z,25.90
2018-09-27T17:34:52.336Z,25.60
2018-09-27T17:37:23.542Z,25.50
2018-09-27T17:39:54.725Z,25.50
2018-09-27T17:42:25.984Z,25.40
2018-09-27T17:44:57.421Z,25.30
2018-09-27T17:47:28.695Z,25.30
2018-09-27T17:49:59.937Z,25.20
2018-09-27T17:52:31.139Z,25.30
2018-09-27T17:55:02.851Z,25.10
2018-09-27T17:57:34.080Z,24.80
2018-09-27T18:00:05.742Z,24.70
2018-09-27T18:02:37.337Z,24.70
2018-09-27T18:05:18.817Z,24.80
2018-09-27T18:07:39.674Z,24.90
2018-09-27T18:10:10.820Z,24.90
2018-09-27T18:12:42.271Z,24.90
2018-09-27T18:15:13.880Z,24.70
2018-09-27T18:17:45.326Z,24.50
2018-09-27T18:20:16.715Z,24.50
2018-09-27T18:22:48.546Z,24.50
2018-09-27T18:25:19.540Z,24.50
2018-09-27T18:27:50.738Z,24.40
2018-09-27T18:30:22.776Z,24.40
2018-09-27T18:32:54.084Z,24.20
2018-09-27T18:35:25.490Z,24.10
2018-09-27T18:37:56.987Z,24.00
2018-09-27T18:40:28.237Z,24.00
2018-09-27T18:42:59.580Z,24.00
2018-09-27T18:45:30.847Z,24.00
2018-09-27T18:48:01.863Z,23.90
2018-09-27T18:50:33.229Z,23.80
2018-09-27T18:53:04.250Z,23.80
2018-09-27T18:55:36.079Z,23.70
2018-09-27T18:58:07.255Z,23.60
2018-09-27T19:00:38.369Z,23.60
2018-09-27T19:03:09.568Z,23.60
2018-09-27T19:05:40.800Z,23.50
2018-09-27T19:08:12.147Z,23.50
2018-09-27T19:10:43.320Z,23.40
2018-09-27T19:13:14.686Z,23.40
2018-09-27T19:15:45.795Z,23.30
2018-09-27T19:18:17.096Z,23.30
2018-09-27T19:20:48.319Z,23.30
2018-09-27T19:23:19.501Z,23.20
2018-09-27T19:25:51.152Z,23.10
2018-09-27T19:28:22.535Z,22.90
2018-09-27T19:30:53.690Z,22.90
2018-09-27T19:33:25.323Z,22.80
2018-09-27T19:35:56.467Z,22.70
2018-09-27T19:38:28.698Z,22.60
2018-09-27T19:41:00.036Z,22.60
2018-09-27T19:43:31.443Z,22.50
2018-09-27T19:46:02.617Z,22.40
2018-09-27T19:48:33.952Z,22.40
2018-09-27T19:51:05.176Z,22.40
2018-09-27T19:53:36.574Z,22.30
2018-09-27T19:56:08.220Z,22.30
2018-09-27T19:58:39.847Z,22.20
2018-09-27T20:01:11.136Z,22.20
2018-09-27T20:03:42.502Z,22.20
2018-09-27T20:06:13.799Z,22.10
2018-09-27T20:08:44.891Z,22.10
2018-09-27T20:11:15.880Z,22.00
2018-09-27T20:13:46.916Z,22.00
2018-09-27T20:16:18.012Z,21.90
2018-09-27T20:18:49.248Z,21.90
2018-09-27T20:21:20.439Z,21.90
2018-09-27T20:23:51.651Z,21.80
2018-09-27T20:26:22.832Z,21.80
2018-09-27T20:28:54.038Z,21.70
2018-09-27T20:31:25.021Z,21.70
2018-09-27T20:33:56.275Z,21.70
2018-09-27T20:36:27.924Z,21.60
2018-09-27T20:38:59.245Z,21.60
2018-09-27T20:41:30.567Z,21.40
2018-09-27T20:44:02.088Z,21.40
2018-09-27T20:46:33.176Z,21.40
2018-09-27T20:49:04.377Z,21.30
2018-09-27T20:51:35.348Z,21.30
2018-09-27T20:54:06.608Z,21.30
2018-09-27T20:56:37.911Z,21.20
2018-09-27T20:59:08.923Z,21.20
2018-09-27T21:01:40.561Z,21.20
2018-09-27T21:04:12.148Z,21.20
2018-09-27T21:06:43.494Z,21.10
2018-09-27T21:09:15.007Z,21.10
2018-09-27T21:11:46.570Z,21.00
2018-09-27T21:14:18.155Z,21.10
2018-09-27T21:16:49.198Z,21.00
2018-09-27T21:19:20.406Z,21.00
2018-09-27T21:21:51.659Z,21.00
2018-09-27T21:24:22.951Z,20.90
2018-09-27T21:26:53.975Z,20.80
2018-09-27T21:29:25.332Z,20.80
2018-09-27T21:31:56.537Z,20.70
2018-09-27T21:34:27.682Z,20.70
2018-09-27T21:36:58.924Z,20.70
2018-09-27T21:39:30.415Z,20.70
2018-09-27T21:42:01.675Z,20.60
2018-09-27T21:44:32.910Z,20.50
2018-09-27T21:47:04.083Z,20.50
2018-09-27T21:49:35.299Z,20.60
2018-09-27T21:52:06.508Z,20.60
2018-09-27T21:54:37.650Z,20.60
2018-09-27T21:57:08.832Z,20.60
2018-09-27T21:59:40.355Z,20.50
2018-09-27T22:02:11.633Z,20.60
2018-09-27T22:04:43.505Z,20.50
2018-09-27T22:07:14.844Z,20.40
2018-09-27T22:09:46.295Z,20.30
2018-09-27T22:12:17.360Z,20.30
2018-09-27T22:14:48.615Z,20.20
2018-09-27T22:17:19.727Z,20.20
2018-09-27T22:19:51.107Z,20.10
2018-09-27T22:22:22.138Z,20.00
2018-09-27T22:24:53.160Z,20.00
2018-09-27T22:27:24.323Z,20.00
2018-09-27T22:29:55.529Z,20.00
2018-09-27T22:32:26.504Z,20.00
2018-09-27T22:35:02.859Z,20.00
2018-09-27T22:37:34.308Z,19.90
2018-09-27T22:40:05.525Z,19.90
2018-09-27T22:42:36.817Z,20.00
2018-09-27T22:45:08.419Z,19.90
2018-09-27T22:47:39.421Z,19.90
2018-09-27T22:50:10.540Z,19.90
2018-09-27T22:52:41.755Z,19.80
2018-09-27T22:55:12.746Z,19.70
2018-09-27T22:57:43.984Z,19.80
2018-09-27T23:00:15.134Z,19.70
2018-09-27T23:02:46.426Z,19.80
2018-09-27T23:05:17.716Z,19.80
2018-09-27T23:07:48.923Z,19.80
2018-09-27T23:10:20.167Z,19.80
2018-09-27T23:12:51.525Z,19.70
2018-09-27T23:15:22.454Z,19.80
2018-09-27T23:17:53.606Z,19.60
2018-09-27T23:20:25.152Z,19.60
2018-09-27T23:22:56.446Z,19.60
2018-09-27T23:25:27.615Z,19.60
2018-09-27T23:27:58.840Z,19.60
2018-09-27T23:30:30.076Z,19.60
2018-09-27T23:33:01.229Z,19.50
2018-09-27T23:35:32.415Z,19.50
2018-09-27T23:38:03.612Z,19.40
2018-09-27T23:40:34.770Z,19.50
2018-09-27T23:43:05.801Z,19.50
2018-09-27T23:45:37.399Z,19.40
2018-09-27T23:48:08.911Z,19.50
2018-09-27T23:50:40.155Z,19.40
2018-09-27T23:53:11.365Z,19.30
2018-09-27T23:55:43.231Z,19.30
2018-09-27T23:58:14.365Z,19.20
